Triddler

Vai direttamente all'ID del puzzle

Scegli i puzzle in base a:
Risolto Question Ordina per
Mostra più filtri >>>
Puzzle per pagina
Pagina N. di 5
Risultato: 82 di 82
ID Descrizione Autore Data Dimensione Punti Popolarità Tempo medio Risolto
14482 Swedish Chef hertseltsur 24/12/16 (25+25)x(25+25)x2 632.770 78,57% 01:38:53
14483 Bunsen Honeydew hertseltsur 24/12/16 (23+27)x(25+19)x2 323.419 63,89% 01:55:02
14484 Floyd Pepper hertseltsur 24/12/16 (25+25)x(25+25)x2 317.946 70,00% 01:51:16
14485 Sam the Eagle hertseltsur 24/12/16 (25+25)x(25+25)x2 248.165 76,67% 00:48:18
14486 Brad Pitt Caricature hertseltsur 24/12/16 (21+27)x(23+27)x2 223.475 34,38% 01:16:06
14487 Burt Reynolds hertseltsur 24/12/16 (25+25)x(25+25)x2 156.581 75,00% 00:42:00
14488 Snowman ellyf 24/12/16 (20+16)x(14+18)x6 2.675 82,74% 00:29:36
14489 Lisa Simpson hertseltsur 01/01/17 (25+25)x(25+25)x2 645.762 83,33% 00:44:24
14490 Moleman Hans hertseltsur 01/01/17 (25+25)x(25+25)x2 575.052 79,54% 00:57:09
14491 Moe Szyslak hertseltsur 01/01/17 (25+25)x(25+25)x2 536.950 63,64% 00:54:38
14492 Barney Gumble hertseltsur 01/01/17 (25+25)x(25+25)x2 498.522 78,84% 01:12:27
14493 Chief Wiggum hertseltsur 01/01/17 (25+25)x(25+25)x2 478.255 77,50% 00:53:01
14494 Patty Bouvier hertseltsur 01/01/17 (25+25)x(25+25)x2 475.869 62,50% 00:39:05
14495 Seymour Skinner hertseltsur 01/01/17 (25+25)x(25+25)x2 465.921 67,86% 00:41:09
14496 Nelson Munch hertseltsur 01/01/17 (25+25)x(25+25)x2 449.886 67,86% 00:47:37
14497 Krusty the Clown hertseltsur 01/01/17 (25+25)x(25+25)x2 434.033 64,28% 00:36:52
14498 Abraham Simpson hertseltsur 01/01/17 (25+25)x(25+25)x2 422.187 79,17% 01:07:48
14499 Edna Krabappel hertseltsur 01/01/17 (25+25)x(25+25)x2 417.619 70,83% 01:11:02
14500 Ned Flanders hertseltsur 01/01/17 (25+25)x(25+25)x2 413.646 61,11% 00:52:22
14501 Martin Prince hertseltsur 01/01/17 (25+25)x(25+25)x2 410.101 82,14% 00:54:12
Puzzle per pagina
Pagina N. di 5
Risultato: 82 di 82